»·PEaware :: N5002T KSNA-KSNA

N5002T :: KSNA-KSNA

FLIGHT INFORMATION

Flight Status: Arrived
Operator: Privately registered:
United States
More flights under this callsign
Pilot: Hunter M. (19355)
Aircraft: CESSNA 172 SKYHAWK
(C172)
More flights by this aircraft type
Origin: KSNA John Wayne-Orange Co
United States
Destination: KSNA John Wayne-Orange Co
United States
More flights between these airports :: More routes between these airports
Route: +SLI
File this flight plan on PilotEdge
Remarks: Practice approaches
Altitude:
(Current/Filed)
3,500ft
Speed:
(Current/Filed)
118kts
Departed: 14-Jun-19 11:31 AM
Arrived: 14-Jun-19 11:56 AM
Distance/Time
Traveled:
0nm/0:25
Distance/Time
To Go:
Arrived

Flight Plot

Page will automatically refresh every two minutes.


Map Options




Map Legend


Flown Route
Filed Route
Departure Airport
Arrival Airport
Navaid (VOR, NDB)
Fix

Horizontal Profiles

Position Reports

Time Latitude Longitude Heading Altitude Ground
Speed
14-Jun-19 10:38 33.667442 -117.870774 37 59ft 0kts
14-Jun-19 10:39 33.667442 -117.870774 37 59ft 0kts
14-Jun-19 10:40 33.667442 -117.870774 37 59ft 0kts
14-Jun-19 10:41 33.667442 -117.870774 37 59ft 0kts
14-Jun-19 10:42 33.667442 -117.870774 37 59ft 0kts
14-Jun-19 10:43 33.667442 -117.870774 37 59ft 0kts
14-Jun-19 10:44 33.667442 -117.870774 37 59ft 0kts
14-Jun-19 10:45 33.667442 -117.870774 37 59ft 0kts
14-Jun-19 10:46 33.667442 -117.870774 37 59ft 0kts
14-Jun-19 10:47 33.667442 -117.870774 37 59ft 0kts
14-Jun-19 10:48 33.667442 -117.870774 37 59ft 0kts
14-Jun-19 10:49 33.667442 -117.870774 37 59ft 0kts
14-Jun-19 10:50 33.667442 -117.870774 37 59ft 0kts
14-Jun-19 10:51 33.667442 -117.870774 37 59ft 0kts
14-Jun-19 10:52 33.667442 -117.870774 37 59ft 0kts
14-Jun-19 10:53 33.667442 -117.870774 37 59ft 0kts
14-Jun-19 10:54 33.667442 -117.870774 37 59ft 0kts
14-Jun-19 10:55 33.667442 -117.870774 37 59ft 0kts
14-Jun-19 10:57 33.667442 -117.870774 37 59ft 0kts
14-Jun-19 11:00 33.667442 -117.870774 37 59ft 0kts
14-Jun-19 11:01 33.667442 -117.870774 37 59ft 0kts
14-Jun-19 11:03 33.667442 -117.870774 37 59ft 0kts
14-Jun-19 11:04 33.667442 -117.870774 37 59ft 0kts
14-Jun-19 11:05 33.667442 -117.870774 37 59ft 0kts
14-Jun-19 11:06 33.667442 -117.870774 37 59ft 0kts
14-Jun-19 11:07 33.667442 -117.870774 37 59ft 0kts
14-Jun-19 11:08 33.667442 -117.870774 37 59ft 0kts
14-Jun-19 11:09 33.667442 -117.870774 37 59ft 0kts
14-Jun-19 11:10 33.667442 -117.870774 37 59ft 0kts
14-Jun-19 11:11 33.667442 -117.870774 37 59ft 0kts
14-Jun-19 11:12 33.667442 -117.870774 37 59ft 0kts
14-Jun-19 11:13 33.667442 -117.870774 37 59ft 0kts
14-Jun-19 11:14 33.667442 -117.870774 37 59ft 0kts
14-Jun-19 11:15 33.667442 -117.870774 37 59ft 0kts
14-Jun-19 11:16 33.667442 -117.870774 37 59ft 0kts
14-Jun-19 11:17 33.667442 -117.870774 37 59ft 0kts
14-Jun-19 11:18 33.667442 -117.870774 37 59ft 0kts
14-Jun-19 11:19 33.667442 -117.870774 37 59ft 0kts
14-Jun-19 11:20 33.667442 -117.870774 37 59ft 0kts
14-Jun-19 11:21 33.669003 -117.871191 41 59ft 15kts
14-Jun-19 11:21 33.671622 -117.868672 42 59ft 12kts
14-Jun-19 11:23 33.674343 -117.866850 25 59ft 11kts
14-Jun-19 11:24 33.676307 -117.865678 26 59ft 4kts
14-Jun-19 11:24 33.678542 -117.864346 25 59ft 17kts
14-Jun-19 11:25 33.679764 -117.863804 306 59ft 0kts
14-Jun-19 11:27 33.679764 -117.863805 306 59ft 0kts
14-Jun-19 11:27 33.679765 -117.863805 306 59ft 0kts
14-Jun-19 11:28 33.679765 -117.863806 306 59ft 0kts
14-Jun-19 11:30 33.679778 -117.864388 207 59ft 0kts
14-Jun-19 11:30 33.674443 -117.867705 208 103ft 80kts
14-Jun-19 11:31 33.657439 -117.888716 231 794ft 94kts
14-Jun-19 11:32 33.640837 -117.914144 231 1407ft 97kts
14-Jun-19 11:33 33.624160 -117.939776 232 1974ft 99kts
14-Jun-19 11:34 33.638102 -117.954254 13 2019ft 117kts
14-Jun-19 11:35 33.667827 -117.945882 13 2412ft 101kts
14-Jun-19 11:36 33.694265 -117.938426 12 2959ft 96kts
14-Jun-19 11:37 33.723903 -117.930246 13 3000ft 114kts
14-Jun-19 11:38 33.751228 -117.917102 27 2996ft 102kts
14-Jun-19 11:39 33.776320 -117.901654 27 2995ft 99kts
14-Jun-19 11:40 33.800491 -117.886709 27 2999ft 96kts
14-Jun-19 11:41 33.824338 -117.871900 27 3000ft 96kts
14-Jun-19 11:42 33.848210 -117.857012 27 2999ft 96kts
14-Jun-19 11:43 33.872031 -117.842091 27 3000ft 96kts
14-Jun-19 11:44 33.888308 -117.821135 92 3019ft 94kts
14-Jun-19 11:45 33.887381 -117.788825 91 2999ft 96kts
14-Jun-19 11:46 33.869339 -117.776047 182 3009ft 96kts
14-Jun-19 11:47 33.842381 -117.777259 182 2999ft 96kts
14-Jun-19 11:48 33.816163 -117.781721 191 3004ft 98kts
14-Jun-19 11:49 33.791087 -117.793180 209 2805ft 98kts
14-Jun-19 11:50 33.768489 -117.810845 213 2175ft 98kts
14-Jun-19 11:51 33.745717 -117.825985 201 1432ft 82kts
14-Jun-19 11:52 33.724741 -117.837791 210 1130ft 83kts
14-Jun-19 11:53 33.704009 -117.850632 212 860ft 74kts
14-Jun-19 11:54 33.686414 -117.861987 208 218ft 69kts
14-Jun-19 11:55 33.675527 -117.869309 298 59ft 11kts
14-Jun-19 11:56 33.676483 -117.871461 295 59ft 0kts

Navigation Log

Ident Type
Flight plan parsing failed, navigation log unavailable